FAWB

Wonderboom Airport

Pretoria, South Africa
METAR FAWB 230900Z 03004KT CAVOK 23/13 Q1017
Observed Flight Rules
Jan-23 @ 09:00 UTC (3 hours ago) Visual Flight Rules
Wind Visibility Clouds
30° at 4 knots 10,000+ meters
  • Clear skies
Temperatures Readings
Current 23°C / 73°F
Dewpoint 13°C / 55°F
Humidity 53%
Altimeter 30.03" Hg
Pressure 1017 hPa
Elevation 1248
METAR FAWB 230900Z 03004KT CAVOK 23/13 Q1017
Observed Flight Rules
Jan-23 @ 09:00 UTC
(3 hours ago)
VFR
Wind Visibility
30° at 4 knots 10,000+ meters
Clouds
  • Clear skies
Temperature Dewpoint
23°C / 73°F 13°C / 55°F
Humidity Altimeter Pressure
53% 30.03" Hg 1017 hPa